Time;durP1;ratioP1;P1;durP2;ratioP2;P2;SDS_P1;SDS_P2;PMS_P1;PMS_P2;Temp;Humidity;BMP_temperature;BMP_pressure;BME280_temperature;BME280_humidity;BME280_pressure;Samples;Min_cycle;Max_cycle;Signal;HPM_P1;HPM_P2
2022/05/25 00:00:20;;;;;;;569.75;15.45;;;9.50;99.90;;;8.10;100.00;100707.66;4998367;28;20088;-77
2022/05/25 00:02:51;;;;;;;6.20;5.60;;;9.40;99.90;;;8.04;100.00;100705.28;4972607;28;20022;-77
2022/05/25 00:05:18;;;;;;;66.20;9.45;;;9.30;99.90;;;7.98;100.00;100708.97;4958057;28;20471;-76
2022/05/25 00:07:44;;;;;;;203.13;11.95;;;9.30;99.90;;;7.99;100.00;100709.81;4961969;28;20477;-77
2022/05/25 00:10:11;;;;;;;118.35;14.48;;;9.30;99.90;;;8.01;100.00;100714.09;4974303;28;20025;-77
2022/05/25 00:12:37;;;;;;;14.70;9.30;;;9.30;99.90;;;8.05;100.00;100721.84;4969903;28;20580;-77
2022/05/25 00:15:12;;;;;;;18.48;12.15;;;9.30;99.90;;;8.09;100.00;100716.44;5001214;28;20038;-77
2022/05/25 00:17:38;;;;;;;298.55;19.10;;;9.30;99.90;;;8.11;100.00;100712.00;4967955;28;20129;-77
2022/05/25 00:20:05;;;;;;;11.88;8.85;;;9.30;99.90;;;8.12;100.00;100713.72;4952675;28;20023;-77
2022/05/25 00:22:52;;;;;;;14.82;10.57;;;9.30;99.90;;;8.11;100.00;100712.00;5008926;28;20033;-76
2022/05/25 00:25:23;;;;;;;29.95;13.65;;;9.30;99.90;;;8.09;100.00;100712.97;4944620;28;20042;-76
2022/05/25 00:27:50;;;;;;;22.05;12.40;;;9.30;99.90;;;8.06;100.00;100721.81;4963303;28;20029;-76
2022/05/25 00:30:20;;;;;;;24.33;14.25;;;9.30;99.90;;;8.05;100.00;100724.47;4994065;28;20021;-77
2022/05/25 00:32:46;;;;;;;25.52;14.18;;;9.30;99.90;;;8.03;100.00;100724.53;4931168;28;20029;-77
2022/05/25 00:35:16;;;;;;;28.70;14.60;;;9.20;99.90;;;8.03;100.00;100724.53;4954913;28;20092;-77
2022/05/25 00:37:44;;;;;;;35.35;13.65;;;9.20;99.90;;;8.03;100.00;100727.13;5005329;28;20639;-76
2022/05/25 00:40:24;;;;;;;27.70;14.43;;;9.30;99.90;;;8.04;100.00;100733.28;5014337;28;20038;-77
2022/05/25 00:42:52;;;;;;;26.92;16.30;;;9.30;99.90;;;8.02;100.00;100730.69;4978316;28;20026;-77
2022/05/25 00:45:18;;;;;;;18.55;13.23;;;9.30;99.90;;;8.04;100.00;100721.00;4960573;28;20038;-76
2022/05/25 00:47:48;;;;;;;16.90;11.27;;;9.30;99.90;;;8.08;100.00;100730.47;4978913;28;20040;-77
2022/05/25 00:50:19;;;;;;;23.88;14.35;;;9.30;99.90;;;8.09;100.00;100733.94;4972496;28;20021;-77
2022/05/25 00:52:48;;;;;;;16.08;11.65;;;9.30;99.90;;;8.09;100.00;100732.16;4952563;28;20039;-77
2022/05/25 00:55:26;;;;;;;17.80;12.30;;;9.30;99.90;;;8.08;100.00;100738.34;4967018;28;20045;-77
2022/05/25 00:57:55;;;;;;;17.23;10.57;;;9.30;99.90;;;8.04;100.00;100739.34;4970840;28;20037;-77
2022/05/25 01:00:28;;;;;;;31.75;9.38;;;9.30;99.90;;;8.00;100.00;100741.22;4946895;28;20049;-77
2022/05/25 01:03:06;;;;;;;64.93;11.35;;;9.20;99.90;;;7.93;100.00;100747.59;4945907;28;20041;-77
2022/05/25 01:05:48;;;;;;;21.83;12.50;;;9.10;99.90;;;7.86;100.00;100743.50;4943247;28;20539;-77
2022/05/25 01:08:33;;;;;;;14.68;8.88;;;9.10;99.90;;;7.81;100.00;100745.41;4947018;28;20041;-77
2022/05/25 01:11:35;;;;;;;21.10;11.93;;;9.00;99.90;;;7.77;100.00;100751.66;4990752;28;20455;-76
2022/05/25 01:14:23;;;;;;;27.25;15.48;;;9.00;99.90;;;7.76;100.00;100744.72;4968255;28;20109;-77
2022/05/25 01:16:57;;;;;;;15.25;11.07;;;9.00;99.90;;;7.76;100.00;100756.06;4970001;28;20057;-76
2022/05/25 01:19:50;;;;;;;15.50;10.93;;;9.00;99.90;;;7.77;100.00;100756.91;4959502;28;20036;-77
2022/05/25 01:23:23;;;;;;;31.75;14.93;;;9.00;99.90;;;7.78;100.00;100756.84;4911224;28;20034;-76
2022/05/25 01:26:29;;;;;;;18.95;12.77;;;9.00;99.90;;;7.77;100.00;100757.75;4962068;28;20847;-76
2022/05/25 01:29:33;;;;;;;23.55;13.07;;;9.00;99.90;;;7.79;100.00;100761.19;4988761;28;20033;-76
2022/05/25 01:32:19;;;;;;;23.88;13.38;;;9.00;99.90;;;7.78;100.00;100764.72;4911958;28;20138;-77
2022/05/25 01:35:41;;;;;;;22.15;13.85;;;9.00;99.90;;;7.79;100.00;100762.94;4991720;28;20051;-76
2022/05/25 01:38:43;;;;;;;28.23;16.63;;;9.10;99.90;;;7.81;100.00;100763.75;4993899;28;20090;-77
2022/05/25 01:41:48;;;;;;;29.67;16.67;;;9.10;99.90;;;7.88;100.00;100770.50;4950850;28;20025;-77
2022/05/25 01:44:27;;;;;;;27.40;16.92;;;9.20;99.90;;;7.89;100.00;100766.97;4966929;28;20057;-77
2022/05/25 01:46:58;;;;;;;36.22;17.25;;;9.20;99.90;;;7.94;100.00;100774.69;4953235;28;20649;-76
2022/05/25 01:49:33;;;;;;;29.05;17.05;;;9.20;99.90;;;7.95;100.00;100761.53;4971666;28;20030;-77
2022/05/25 01:52:07;;;;;;;44.03;20.13;;;9.20;99.90;;;7.96;100.00;100765.84;4946593;28;20196;-76
2022/05/25 01:54:40;;;;;;;29.05;15.73;;;9.20;99.90;;;7.95;100.00;100769.38;4963997;28;20534;-77
2022/05/25 01:57:13;;;;;;;36.03;17.92;;;9.20;99.90;;;7.93;100.00;100776.44;4959635;28;20044;-77
2022/05/25 01:59:39;;;;;;;33.53;18.42;;;9.10;99.90;;;7.90;100.00;100773.91;4973988;28;20128;-76
2022/05/25 02:04:54;;;;;;;37.00;18.95;;;9.10;99.90;;;7.84;100.00;100782.03;4964881;28;20103;-77
2022/05/25 02:07:40;;;;;;;23.33;14.38;;;9.10;99.90;;;7.84;100.00;100789.00;4971774;28;20202;-77
2022/05/25 02:10:59;;;;;;;24.85;15.48;;;9.10;99.90;;;7.80;100.00;100783.03;4959022;28;20370;-77
2022/05/25 02:14:28;;;;;;;21.33;10.73;;;9.00;99.90;;;7.69;100.00;100787.75;5003134;28;20098;-78
2022/05/25 02:17:50;;;;;;;750.40;18.08;;;8.80;99.90;;;7.31;100.00;100789.88;4938031;28;20120;-77
2022/05/25 02:20:58;;;;;;;578.00;13.00;;;8.50;99.90;;;6.96;100.00;100790.09;4991539;28;20115;-79
2022/05/25 02:23:55;;;;;;;203.15;6.93;;;8.30;99.90;;;6.81;100.00;100785.31;4986180;28;20043;-77
2022/05/25 02:26:31;;;;;;;7.20;5.85;;;8.10;99.90;;;6.71;100.00;100773.41;4958855;28;20541;-77
2022/05/25 02:29:47;;;;;;;11.10;6.55;;;8.00;99.90;;;6.67;100.00;100780.47;4949783;28;20477;-76
2022/05/25 02:32:29;;;;;;;10.25;7.05;;;8.00;99.90;;;6.64;100.00;100782.34;4950536;28;20505;-77
2022/05/25 02:34:58;;;;;;;24.60;12.68;;;8.00;99.90;;;6.65;100.00;100784.03;4963614;28;20037;-77
2022/05/25 02:37:26;;;;;;;15.05;9.52;;;8.00;99.90;;;6.70;100.00;100787.41;4956819;28;20036;-76
2022/05/25 02:39:56;;;;;;;17.45;10.63;;;;;;;6.76;100.00;100795.91;4966726;28;20029;-76
2022/05/25 02:42:23;;;;;;;20.10;11.23;;;8.10;99.90;;;6.84;100.00;100802.69;4984640;28;20026;-76
2022/05/25 02:44:50;;;;;;;7.53;6.10;;;8.10;99.90;;;6.90;100.00;100798.13;4974620;28;20040;-77
2022/05/25 02:47:16;;;;;;;15.23;10.25;;;8.10;99.90;;;6.93;100.00;100802.41;4972298;28;20038;-77
2022/05/25 02:49:46;;;;;;;12.10;7.65;;;8.20;99.90;;;6.96;100.00;100803.16;5007903;28;20030;-76
2022/05/25 02:52:12;;;;;;;15.27;8.68;;;8.20;99.90;;;6.99;100.00;100805.69;4924316;28;20395;-76
2022/05/25 02:54:39;;;;;;;16.58;9.20;;;8.20;99.90;;;7.01;100.00;100805.63;4975296;28;20040;-77
2022/05/25 02:57:06;;;;;;;4.97;4.15;;;8.20;99.90;;;7.03;100.00;100801.22;4970354;28;20052;-76
2022/05/25 02:59:32;;;;;;;8.88;5.93;;;8.20;99.90;;;7.06;100.00;100800.25;4979445;28;20033;-77
2022/05/25 03:02:05;;;;;;;7.13;4.95;;;8.30;99.90;;;7.08;100.00;100801.91;4961163;28;20041;-76
2022/05/25 03:04:32;;;;;;;8.43;3.20;;;8.30;99.90;;;7.07;100.00;100807.22;4969993;28;20029;-76
2022/05/25 03:06:58;;;;;;;10.63;5.43;;;8.30;99.90;;;6.98;100.00;100800.50;4961623;28;20032;-76
2022/05/25 03:09:24;;;;;;;11.60;4.30;;;8.20;99.90;;;6.93;100.00;100803.28;4941183;28;20036;-76
2022/05/25 03:11:55;;;;;;;4.78;3.30;;;8.20;99.90;;;6.89;100.00;100804.28;4947079;28;20025;-77
2022/05/25 03:14:22;;;;;;;2.03;1.75;;;8.20;99.90;;;6.92;100.00;100814.63;4987969;28;20557;-76
2022/05/25 03:16:49;;;;;;;7.72;2.10;;;8.20;99.90;;;6.96;100.00;100808.41;4954446;28;20516;-77
2022/05/25 03:19:14;;;;;;;2.55;2.20;;;8.20;99.90;;;7.05;100.00;100807.25;4950923;28;20037;-76
2022/05/25 03:21:40;;;;;;;6.60;2.55;;;8.30;99.90;;;7.12;100.00;100810.56;4966381;28;20679;-76
2022/05/25 03:24:07;;;;;;;6.18;3.53;;;8.40;99.90;;;7.21;100.00;100823.34;4980473;28;20474;-76
2022/05/25 03:26:35;;;;;;;8.27;3.50;;;8.40;99.90;;;7.31;100.00;100816.94;4962795;28;20062;-77
2022/05/25 03:29:01;;;;;;;4.82;3.22;;;8.50;99.90;;;7.43;100.00;100815.69;4992529;28;20099;-76
2022/05/25 03:31:27;;;;;;;6.90;4.13;;;8.60;99.90;;;7.53;100.00;100822.31;4978625;28;20037;-76
2022/05/25 03:33:53;;;;;;;7.80;4.03;;;8.70;99.90;;;7.68;100.00;100820.97;4960501;28;20397;-76
2022/05/25 03:36:18;;;;;;;10.55;4.38;;;8.80;99.90;;;7.87;100.00;100829.09;4981319;28;20165;-76
2022/05/25 03:38:44;;;;;;;3.35;2.90;;;9.00;99.90;;;8.07;100.00;100832.78;4983820;28;20441;-76
2022/05/25 03:41:10;;;;;;;4.30;3.35;;;9.20;99.90;;;8.32;100.00;100843.31;4944348;28;20022;-77
2022/05/25 03:43:39;;;;;;;7.82;3.83;;;9.50;99.90;;;8.57;100.00;100838.91;5007402;28;20028;-77
2022/05/25 03:46:04;;;;;;;6.18;3.20;;;9.70;99.90;;;8.83;100.00;100824.81;4979490;28;20132;-76
2022/05/25 03:48:30;;;;;;;2.30;2.10;;;10.20;99.90;;;9.39;100.00;100843.69;4979062;28;20060;-76
2022/05/25 03:50:56;;;;;;;3.00;2.63;;;11.20;99.90;;;10.66;100.00;100840.94;4966093;28;20767;-76
2022/05/25 03:53:22;;;;;;;6.05;2.10;;;12.80;99.90;;;12.33;97.70;100852.25;4954579;28;20068;-77
2022/05/25 03:55:47;;;;;;;2.40;2.20;;;13.70;99.90;;;13.34;88.23;100859.19;4976724;28;20048;-76
2022/05/25 03:58:13;;;;;;;2.95;2.20;;;14.80;99.90;;;14.50;81.41;100866.59;4984104;28;20033;-77
2022/05/25 04:00:39;;;;;;;4.25;2.65;;;15.80;99.90;;;15.67;75.24;100867.19;4966483;28;20475;-76
2022/05/25 04:03:10;;;;;;;7.72;2.70;;;16.50;99.90;;;16.40;71.12;100864.94;4944588;28;21042;-76
2022/05/25 04:05:35;;;;;;;3.28;2.67;;;17.60;99.90;;;17.70;67.28;100861.91;4984588;28;20040;-77
2022/05/25 04:08:01;;;;;;;;;;;17.70;99.90;;;19.15;64.91;100877.47;5000373;28;20168;-76
2022/05/25 04:10:28;;;;;;;5.30;2.50;;;19.70;99.90;;;20.11;60.55;100883.88;4973616;28;19913;-76
2022/05/25 04:12:58;;;;;;;4.07;2.88;;;20.10;99.90;;;20.22;58.87;100879.34;4960328;28;20136;-77
2022/05/25 04:15:27;;;;;;;5.00;3.70;;;20.30;99.90;;;20.29;58.83;100887.69;4944815;28;20066;-77
2022/05/25 04:17:53;;;;;;;6.65;4.28;;;20.30;99.90;;;19.94;59.34;100894.19;4994343;28;20021;-77
2022/05/25 04:20:20;;;;;;;8.60;6.13;;;19.80;99.90;;;19.26;60.66;100890.81;4990128;28;20033;-75
2022/05/25 04:22:49;;;;;;;8.48;5.53;;;19.60;99.90;;;18.92;61.80;100898.84;4992828;28;20414;-77
2022/05/25 04:25:19;;;;;;;10.60;6.72;;;19.10;99.90;;;18.30;63.42;100901.88;4959501;28;20026;-77
2022/05/25 04:27:46;;;;;;;13.27;6.40;;;19.10;99.90;;;18.66;62.89;100911.53;4958244;28;20052;-77
2022/05/25 04:30:25;;;;;;;6.43;5.82;;;19.00;99.90;;;18.78;62.79;100912.41;4935057;28;20021;-77
2022/05/25 04:32:52;;;;;;;8.50;5.75;;;19.30;99.90;;;19.64;60.59;100910.88;4942400;28;20038;-77
2022/05/25 04:35:26;;;;;;;7.82;5.35;;;19.80;99.90;;;20.27;58.36;100919.03;5011303;28;20525;-77
2022/05/25 04:37:52;;;;;;;8.20;6.13;;;20.20;99.90;;;20.95;57.32;100926.66;4967285;28;20035;-78
2022/05/25 04:40:44;;;;;;;7.25;5.57;;;21.00;99.90;;;21.02;57.34;100934.03;4974011;28;20048;-78
2022/05/25 04:43:14;;;;;;;11.80;5.55;;;21.30;99.90;;;21.29;56.05;100935.25;4973160;28;20470;-77
2022/05/25 04:45:45;;;;;;;8.27;5.20;;;21.60;99.90;;;21.78;54.99;100946.97;4989305;28;20449;-77
2022/05/25 04:48:14;;;;;;;5.30;4.80;;;21.90;99.90;;;22.06;54.26;100947.97;5010829;28;20033;-78
2022/05/25 04:50:43;;;;;;;8.32;4.70;;;22.10;99.90;;;22.38;53.72;100952.22;4985843;28;20026;-78
2022/05/25 04:53:13;;;;;;;9.07;5.18;;;22.40;99.90;;;23.42;51.37;100956.75;4951391;28;20026;-77
2022/05/25 04:58:41;;;;;;;9.00;4.40;;;24.40;99.90;;;26.99;44.62;100980.47;4973906;28;20063;-78
2022/05/25 05:01:09;;;;;;;5.45;4.25;;;25.40;99.90;;;27.74;42.56;100978.34;4986023;28;20025;-77
2022/05/25 05:03:38;;;;;;;8.75;4.30;;;26.00;99.90;;;28.19;41.19;100990.28;4998426;28;20436;-77
2022/05/25 05:06:07;;;;;;;5.97;4.70;;;26.40;99.50;;;28.30;40.94;100989.00;4971527;28;20029;-78
2022/05/25 05:08:34;;;;;;;8.13;4.45;;;26.70;98.50;;;28.32;40.79;100990.50;4993867;28;20026;-78
2022/05/25 05:11:16;;;;;;;7.40;4.20;;;26.70;98.10;;;27.56;41.36;100993.00;4939714;28;20022;-78
2022/05/25 05:13:49;;;;;;;9.63;4.53;;;26.60;97.80;;;28.17;40.65;100998.56;4965425;28;20033;-78
2022/05/25 05:16:16;;;;;;;6.63;4.22;;;26.50;98.80;;;27.36;41.96;100992.53;4990813;28;21108;-78
2022/05/25 05:18:43;;;;;;;5.40;4.13;;;26.50;98.20;;;27.52;41.91;101002.47;4984728;28;20052;-78
2022/05/25 05:21:09;;;;;;;6.93;4.68;;;26.40;97.70;;;27.82;46.07;100994.56;4970638;28;20508;-79
2022/05/25 05:23:41;;;;;;;12.15;4.60;;;26.20;97.80;;;27.95;46.72;100994.00;4975475;28;20099;-78
2022/05/25 05:26:07;;;;;;;10.65;4.57;;;25.90;98.00;;;28.15;48.74;100989.78;4947514;28;20476;-78
2022/05/25 05:28:46;;;;;;;8.05;4.50;;;25.70;97.80;;;28.83;48.33;100992.59;4979910;28;20544;-78
2022/05/25 05:31:13;;;;;;;8.63;5.05;;;25.70;98.30;;;28.53;47.27;100995.28;4977422;28;20117;-78
2022/05/25 05:33:39;;;;;;;5.30;4.63;;;26.00;97.80;;;29.45;45.28;101011.25;4967907;28;20033;-78
2022/05/25 05:36:09;;;;;;;6.55;4.90;;;26.20;98.20;;;29.24;45.90;101005.75;4949778;28;20079;-77
2022/05/25 05:38:52;;;;;;;12.63;4.88;;;26.70;97.70;;;29.92;44.25;101014.56;4949980;28;20045;-77
2022/05/25 05:41:21;;;;;;;9.60;4.63;;;27.30;97.40;;;30.27;43.99;101020.97;4968962;28;22887;-78
2022/05/25 05:43:48;;;;;;;6.82;5.07;;;28.10;97.00;;;31.81;42.95;101022.06;4970857;28;20022;-78
2022/05/25 05:46:23;;;;;;;7.28;4.20;;;28.80;95.70;;;32.35;41.82;101029.34;4992422;28;20044;-77
2022/05/25 05:48:49;;;;;;;6.80;4.53;;;29.60;95.70;;;32.78;35.53;101039.03;4938578;28;20072;-78
2022/05/25 05:51:15;;;;;;;5.63;4.30;;;30.20;94.30;;;32.78;34.09;101048.03;4924873;28;20105;-77
2022/05/25 05:53:41;;;;;;;4.55;4.03;;;30.40;92.70;;;31.88;35.23;101048.28;4964650;28;20017;-77
2022/05/25 05:56:10;;;;;;;6.38;4.88;;;30.30;92.70;;;32.16;34.36;101054.66;4952214;28;20998;-77
2022/05/25 05:58:35;;;;;;;9.23;4.68;;;30.30;92.20;;;31.87;34.56;101067.53;4966466;28;20035;-77
2022/05/25 06:01:01;;;;;;;7.43;4.43;;;30.20;92.40;;;31.73;34.97;101073.97;4963899;28;20038;-77
2022/05/25 06:03:27;;;;;;;5.53;4.50;;;30.30;92.30;;;31.83;34.35;101072.53;4966596;28;20037;-77
2022/05/25 06:05:53;;;;;;;4.95;4.45;;;30.40;91.50;;;31.64;34.81;101076.88;4950315;28;20029;-77
2022/05/25 06:08:21;;;;;;;6.47;4.72;;;30.10;91.40;;;30.70;35.82;101071.78;4942778;28;20036;-77
2022/05/25 06:10:47;;;;;;;5.55;4.32;;;29.50;92.10;;;29.42;37.46;101070.47;4964873;28;20025;-77
2022/05/25 06:13:16;;;;;;;9.23;4.88;;;;;;;28.19;39.92;101074.19;4967136;28;20041;-77
2022/05/25 06:21:22;;;;;;;9.38;5.13;;;27.00;93.80;;;26.75;42.47;101069.69;4989614;28;20102;-78
2022/05/25 06:23:49;;;;;;;6.88;4.75;;;26.60;94.10;;;27.18;41.60;101067.59;4940045;28;20029;-76
2022/05/25 06:26:15;;;;;;;7.10;5.32;;;26.80;95.10;;;27.49;40.97;101073.13;4979216;28;20045;-76
2022/05/25 06:28:44;;;;;;;6.25;5.18;;;27.20;94.20;;;28.72;39.42;101080.59;4971991;28;20071;-76
2022/05/25 06:31:11;;;;;;;9.48;5.13;;;27.70;94.10;;;29.11;38.92;101090.44;4999941;28;20037;-76
2022/05/25 06:33:38;;;;;;;5.43;4.93;;;28.10;93.60;;;29.35;39.14;101099.34;4966235;28;20038;-76
2022/05/25 06:36:24;;;;;;;11.93;5.47;;;28.60;93.20;;;29.90;39.87;101099.94;4968273;28;20041;-76
2022/05/25 06:38:53;;;;;;;6.97;5.93;;;29.10;93.10;;;30.66;38.42;101103.09;4997345;28;20116;-76
2022/05/25 06:41:19;;;;;;;6.07;4.93;;;29.70;92.50;;;30.99;37.49;101117.00;4991506;28;20041;-76
2022/05/25 06:43:46;;;;;;;8.88;5.28;;;30.10;91.10;;;31.18;36.81;101128.25;4991686;28;20659;-76
2022/05/25 06:46:16;;;;;;;5.63;5.10;;;30.10;91.50;;;30.35;38.14;101119.72;4988358;28;20034;-76
2022/05/25 06:48:42;;;;;;;7.15;5.07;;;29.60;91.40;;;28.53;38.62;101133.41;4970968;28;20109;-76
2022/05/25 06:51:13;;;;;;;6.22;5.20;;;28.70;90.60;;;27.59;39.99;101125.16;4993016;28;20509;-77
2022/05/25 06:53:39;;;;;;;5.32;4.82;;;27.80;91.30;;;27.02;40.89;101117.13;4991517;28;20025;-76
2022/05/25 06:56:05;;;;;;;9.73;5.90;;;27.50;92.40;;;27.46;40.74;101122.16;4968624;28;20045;-76
2022/05/25 06:58:34;;;;;;;6.18;5.50;;;27.50;92.80;;;27.34;40.97;101123.53;4968407;28;20468;-76
2022/05/25 07:01:01;;;;;;;6.68;5.22;;;27.40;93.10;;;27.67;41.04;101120.72;5002009;28;21960;-75
2022/05/25 07:03:27;;;;;;;7.35;5.57;;;27.30;93.60;;;27.24;41.00;101122.88;4952408;28;20053;-76
2022/05/25 07:05:53;;;;;;;8.10;6.18;;;27.10;93.20;;;25.94;43.23;101122.44;4986905;28;20196;-75
2022/05/25 07:08:19;;;;;;;9.45;5.95;;;26.30;92.50;;;24.84;44.70;101118.47;4941888;28;20056;-76
2022/05/25 07:10:46;;;;;;;9.88;5.78;;;25.40;93.40;;;24.01;46.20;101113.22;4974210;28;20217;-76
2022/05/25 07:13:15;;;;;;;10.15;6.38;;;24.50;94.20;;;23.21;48.48;101110.94;4984702;28;20026;-76
2022/05/25 07:15:42;;;;;;;8.38;6.10;;;23.80;95.70;;;22.66;50.31;101105.31;5005871;28;20382;-76
2022/05/25 07:18:08;;;;;;;8.32;6.07;;;23.30;96.60;;;22.11;51.65;101095.88;4962319;28;20498;-75
2022/05/25 07:20:33;;;;;;;8.95;6.63;;;23.00;96.70;;;21.62;53.08;101099.38;4978671;28;20036;-75
2022/05/25 07:22:59;;;;;;;7.78;6.68;;;22.60;98.00;;;21.52;53.94;101093.13;4976520;28;20034;-76
2022/05/25 07:25:25;;;;;;;8.60;6.50;;;22.40;98.50;;;21.75;53.79;101088.41;4970264;28;20053;-75
2022/05/25 07:27:51;;;;;;;8.73;6.60;;;22.40;98.90;;;21.83;54.14;101092.13;4971850;28;20037;-75
2022/05/25 07:30:17;;;;;;;8.68;6.47;;;22.40;99.70;;;21.80;54.96;101086.19;4972333;28;20613;-75
2022/05/25 07:32:45;;;;;;;8.48;6.50;;;22.50;99.40;;;22.00;54.67;101092.47;4976943;28;20037;-76
2022/05/25 07:35:13;;;;;;;7.20;6.30;;;22.60;98.80;;;22.15;53.21;101082.19;4965275;28;20121;-76
2022/05/25 07:37:45;;;;;;;9.05;6.45;;;22.70;99.20;;;22.38;53.69;101077.47;4941102;28;20124;-76
2022/05/25 07:40:15;;;;;;;9.98;6.22;;;22.90;98.60;;;22.49;52.72;101074.66;4985175;28;20026;-75
2022/05/25 07:42:46;;;;;;;10.50;6.30;;;22.90;98.00;;;22.14;52.77;101078.69;4987921;28;20063;-76
2022/05/25 07:45:12;;;;;;;7.80;6.03;;;22.80;98.20;;;22.12;53.26;101064.56;4978349;28;20055;-76
2022/05/25 07:47:37;;;;;;;9.55;5.53;;;22.70;99.30;;;22.21;54.13;101061.03;4978184;28;20037;-82
2022/05/25 07:50:04;;;;;;;7.38;5.93;;;22.80;98.90;;;22.38;53.29;101067.59;4994168;28;20025;-75
2022/05/25 07:52:37;;;;;;;8.15;5.60;;;22.90;98.70;;;22.30;53.04;101070.13;4983052;28;20028;-75
2022/05/25 07:55:08;;;;;;;6.88;6.03;;;22.80;98.50;;;22.08;53.43;101069.34;4972316;28;20108;-74
2022/05/25 07:57:34;;;;;;;7.30;5.90;;;22.70;98.90;;;21.88;53.93;101073.81;4994965;28;20056;-75
2022/05/25 08:00:01;;;;;;;9.43;6.47;;;22.60;99.10;;;21.87;54.57;101069.41;4965490;28;20036;-83
2022/05/25 08:05:47;;;;;;;9.00;6.03;;;23.10;99.10;;;23.79;51.78;101071.47;4933639;28;20044;-78
2022/05/25 08:08:25;;;;;;;7.65;6.00;;;24.20;97.60;;;25.27;47.65;101073.72;4976834;28;20028;-78
2022/05/25 08:11:01;;;;;;;7.50;6.00;;;24.80;98.00;;;25.51;48.19;101064.94;4969970;28;20037;-82
2022/05/25 08:13:27;;;;;;;;;;;24.80;98.30;;;25.73;46.53;101075.13;4975226;28;20037;-77
2022/05/25 08:15:56;;;;;;;12.27;6.03;;;25.70;95.60;;;26.56;44.67;101071.69;4991785;28;19947;-77
2022/05/25 08:18:22;;;;;;;10.23;5.50;;;26.30;95.40;;;27.14;43.58;101086.00;4970697;28;20189;-77
2022/05/25 08:20:48;;;;;;;9.68;5.57;;;26.60;94.60;;;26.69;43.92;101081.16;4976979;28;20017;-77
2022/05/25 08:23:16;;;;;;;9.68;5.63;;;26.40;94.40;;;25.92;44.52;101084.03;4964896;28;20108;-77
2022/05/25 08:25:43;;;;;;;26.75;5.75;;;26.30;94.30;;;26.58;43.90;101090.44;4971241;28;20109;-76
2022/05/25 08:28:12;;;;;;;41.45;5.97;;;26.60;94.20;;;27.11;42.67;101085.53;4985766;28;20059;-76
2022/05/25 08:30:40;;;;;;;7.72;4.22;;;26.90;93.60;;;27.41;41.67;101095.63;5007330;28;20425;-76
2022/05/25 08:33:06;;;;;;;7.00;4.50;;;27.20;93.10;;;27.35;41.46;101103.59;4970756;28;20111;-76
2022/05/25 08:35:32;;;;;;;8.15;4.53;;;27.00;92.40;;;26.60;42.26;101091.94;4975652;28;20034;-76
2022/05/25 08:37:58;;;;;;;5.07;4.30;;;26.80;93.10;;;26.54;43.17;101091.72;4985964;28;20179;-76
2022/05/25 08:40:28;;;;;;;5.43;4.63;;;26.60;92.20;;;25.96;43.35;101101.53;4989354;28;20026;-76
2022/05/25 08:43:35;;;;;;;8.38;5.10;;;26.30;92.70;;;25.31;44.56;101097.50;5002940;28;20040;-75
2022/05/25 08:46:08;;;;;;;8.43;5.25;;;25.90;93.60;;;25.23;45.23;101093.91;4983786;28;20036;-76
2022/05/25 08:48:34;;;;;;;7.60;4.35;;;25.60;92.90;;;24.83;44.75;101089.88;4962454;28;20049;-76
2022/05/25 08:51:13;;;;;;;8.15;4.75;;;25.30;94.00;;;24.69;45.83;101086.72;4993539;28;20032;-76
2022/05/25 08:53:40;;;;;;;8.88;4.28;;;25.30;94.10;;;24.80;45.69;101085.66;4980622;28;20020;-76
2022/05/25 08:56:39;;;;;;;8.73;6.00;;;25.20;94.20;;;24.87;45.26;101091.25;4967034;28;20501;-76
2022/05/25 08:59:26;;;;;;;9.23;5.85;;;25.40;95.00;;;25.27;46.50;101079.09;4988856;28;20033;-75
2022/05/25 09:02:29;;;;;;;7.28;5.88;;;25.60;94.80;;;25.47;45.21;101075.19;4989379;28;20044;-76
2022/05/25 09:05:22;;;;;;;7.25;5.28;;;25.80;94.90;;;25.60;43.67;101077.44;4942443;28;20152;-76
2022/05/25 09:08:15;;;;;;;8.00;4.55;;;25.90;93.90;;;25.72;44.68;101081.56;4973425;28;20045;-75
2022/05/25 09:10:48;;;;;;;5.88;4.25;;;26.00;94.20;;;25.78;44.71;101080.03;4992433;28;20119;-75
2022/05/25 09:13:42;;;;;;;8.32;5.03;;;26.00;93.40;;;25.45;44.16;101079.88;4954146;28;20027;-76
2022/05/25 09:16:16;;;;;;;8.25;4.97;;;25.90;93.20;;;25.25;44.65;101075.72;4936426;28;20041;-76
2022/05/25 09:19:25;;;;;;;7.05;4.65;;;25.70;93.10;;;24.96;44.93;101060.69;4965370;28;20040;-77
2022/05/25 09:21:57;;;;;;;4.57;3.10;;;25.60;92.80;;;24.91;43.95;101074.63;4973142;28;20041;-77
2022/05/25 09:24:30;;;;;;;5.38;3.50;;;25.40;92.70;;;24.64;44.16;101072.88;4968753;28;20052;-76
2022/05/25 09:26:58;;;;;;;6.90;4.47;;;25.30;93.50;;;24.56;45.13;101070.97;4952948;28;20031;-76
2022/05/25 09:29:24;;;;;;;6.95;4.00;;;25.20;93.60;;;24.64;45.20;101067.50;4977068;28;20076;-76
2022/05/25 09:32:37;;;;;;;7.22;4.10;;;25.20;92.70;;;24.53;44.52;101070.44;4986058;28;20485;-76
2022/05/25 09:35:37;;;;;;;6.82;4.40;;;25.10;94.20;;;24.47;45.98;101060.25;4970843;28;20524;-76
2022/05/25 09:38:21;;;;;;;9.48;4.10;;;25.00;93.60;;;24.29;45.49;101060.25;4977929;28;20133;-76
2022/05/25 09:41:01;;;;;;;6.47;4.10;;;25.00;93.90;;;24.44;45.08;101065.94;4936810;28;20259;-77
2022/05/25 09:43:34;;;;;;;7.38;3.47;;;25.00;93.40;;;24.46;44.70;101064.78;4984755;28;20035;-76
2022/05/25 09:46:49;;;;;;;7.75;3.20;;;24.90;93.10;;;24.24;44.77;101057.16;4947465;28;20051;-77
2022/05/25 09:49:40;;;;;;;6.03;3.40;;;24.80;93.60;;;23.94;45.98;101053.81;4939612;28;20036;-77
2022/05/25 09:52:32;;;;;;;4.72;3.20;;;24.50;92.70;;;23.60;45.71;101066.97;4981813;28;20043;-77
2022/05/25 09:55:42;;;;;;;4.15;3.03;;;24.40;92.00;;;23.51;44.13;101058.81;4944388;28;20118;-77
2022/05/25 09:58:37;;;;;;;4.57;2.85;;;24.30;92.60;;;23.63;43.14;101066.66;4966161;28;20650;-77
2022/05/25 10:01:34;;;;;;;5.63;3.35;;;24.30;93.40;;;23.77;44.70;101060.00;4988087;28;20025;-77
2022/05/25 10:04:01;;;;;;;;;;;24.50;93.00;;;24.01;44.58;101044.13;4942201;28;20693;-77
2022/05/25 10:06:49;;;;;;;4.72;3.05;;;24.60;92.40;;;24.07;43.84;101053.47;4933949;28;19917;-76
2022/05/25 10:09:24;;;;;;;5.95;2.35;;;24.60;92.00;;;23.85;43.62;101060.09;4959195;28;20049;-76
2022/05/25 10:11:58;;;;;;;4.95;2.05;;;24.60;91.00;;;23.80;43.48;101063.25;4993382;28;20029;-77
2022/05/25 10:14:41;;;;;;;4.63;1.80;;;24.60;91.30;;;23.92;42.76;101069.25;4966418;28;20512;-77
2022/05/25 10:17:35;;;;;;;4.65;2.90;;;24.60;92.40;;;24.03;43.22;101057.44;4957343;28;20065;-77
2022/05/25 10:20:28;;;;;;;4.75;2.30;;;24.60;91.80;;;23.95;43.81;101075.19;4969467;28;20025;-76
2022/05/25 10:23:15;;;;;;;8.15;1.90;;;24.60;90.40;;;24.17;41.35;101070.38;4974075;28;20115;-77
2022/05/25 10:25:55;;;;;;;4.07;1.52;;;24.70;90.50;;;23.90;41.53;101080.16;5000678;28;20042;-76
2022/05/25 10:28:36;;;;;;;3.55;2.03;;;24.60;90.50;;;23.94;41.61;101084.25;4953354;28;20498;-77
2022/05/25 10:37:41;;;;;;;3.30;1.80;;;24.60;91.10;;;24.11;42.09;101071.00;4952045;28;20091;-76
2022/05/25 10:40:20;;;;;;;2.95;1.70;;;24.60;90.10;;;23.77;40.93;101079.66;4942167;28;20037;-77
2022/05/25 10:42:59;;;;;;;6.07;2.00;;;24.40;90.10;;;23.39;41.89;101084.19;4909655;28;20034;-77
2022/05/25 10:45:51;;;;;;;3.25;1.70;;;24.10;91.30;;;23.12;43.54;101079.56;4945209;28;20566;-77
2022/05/25 10:48:44;;;;;;;17.27;1.10;;;23.60;90.20;;;22.19;42.90;101086.31;5022466;28;20028;-77
2022/05/25 10:51:24;;;;;;;2.88;0.75;;;22.20;90.60;;;20.01;46.60;101074.41;5033867;28;20076;-77
2022/05/25 10:57:44;;;;;;;4.78;0.63;;;20.10;93.80;;;18.07;51.28;101066.16;4979505;28;20418;-78
2022/05/25 11:00:26;;;;;;;1.02;0.40;;;19.40;95.40;;;17.80;53.55;101062.69;4915256;28;20026;-77
2022/05/25 11:03:25;;;;;;;0.60;0.50;;;19.50;97.00;;;18.37;53.56;101057.72;4953751;28;20083;-78
2022/05/25 11:06:45;;;;;;;1.67;0.50;;;19.60;96.60;;;19.42;51.25;101048.81;4975362;22;20069;-79
2022/05/25 11:10:02;;;;;;;1.02;0.60;;;20.20;95.30;;;19.96;49.33;101044.56;4953223;28;20475;-78